sensor_id;sensor_type;location;lat;lon;timestamp;P1;durP1;ratioP1;P2;durP2;ratioP2
63370;SDS011;49504;48.336;14.472;2022-09-17T00:03:00;5.07;;;3.20;;
63370;SDS011;49504;48.336;14.472;2022-09-17T00:10:05;5.22;;;3.10;;
63370;SDS011;49504;48.336;14.472;2022-09-17T00:15:07;5.50;;;2.90;;
63370;SDS011;49504;48.336;14.472;2022-09-17T00:20:09;4.28;;;2.38;;
63370;SDS011;49504;48.336;14.472;2022-09-17T00:25:11;5.25;;;2.70;;
63370;SDS011;49504;48.336;14.472;2022-09-17T00:30:12;4.63;;;2.60;;
63370;SDS011;49504;48.336;14.472;2022-09-17T00:35:14;4.35;;;2.55;;
63370;SDS011;49504;48.336;14.472;2022-09-17T00:40:16;4.72;;;2.47;;
63370;SDS011;49504;48.336;14.472;2022-09-17T00:45:18;5.15;;;2.53;;
63370;SDS011;49504;48.336;14.472;2022-09-17T00:50:22;4.25;;;2.55;;
63370;SDS011;49504;48.336;14.472;2022-09-17T00:55:29;4.37;;;2.60;;
63370;SDS011;49504;48.336;14.472;2022-09-17T01:00:35;4.17;;;2.30;;
63370;SDS011;49504;48.336;14.472;2022-09-17T01:05:39;4.78;;;2.47;;
63370;SDS011;49504;48.336;14.472;2022-09-17T01:10:53;4.60;;;2.50;;
63370;SDS011;49504;48.336;14.472;2022-09-17T01:16:11;4.20;;;2.15;;
63370;SDS011;49504;48.336;14.472;2022-09-17T01:21:28;5.00;;;2.60;;
63370;SDS011;49504;48.336;14.472;2022-09-17T01:30:08;4.25;;;2.38;;
63370;SDS011;49504;48.336;14.472;2022-09-17T01:35:22;4.07;;;2.20;;
63370;SDS011;49504;48.336;14.472;2022-09-17T01:42:46;4.07;;;2.40;;
63370;SDS011;49504;48.336;14.472;2022-09-17T01:47:53;4.38;;;2.28;;
63370;SDS011;49504;48.336;14.472;2022-09-17T01:52:58;3.80;;;1.95;;
63370;SDS011;49504;48.336;14.472;2022-09-17T02:00:50;4.32;;;2.35;;
63370;SDS011;49504;48.336;14.472;2022-09-17T02:05:57;3.83;;;2.10;;
63370;SDS011;49504;48.336;14.472;2022-09-17T02:14:10;3.97;;;2.17;;
63370;SDS011;49504;48.336;14.472;2022-09-17T02:20:45;3.97;;;2.17;;
63370;SDS011;49504;48.336;14.472;2022-09-17T02:25:52;4.30;;;2.15;;
63370;SDS011;49504;48.336;14.472;2022-09-17T02:31:01;3.53;;;1.85;;
63370;SDS011;49504;48.336;14.472;2022-09-17T02:40:52;3.97;;;2.08;;
63370;SDS011;49504;48.336;14.472;2022-09-17T02:46:09;3.60;;;1.98;;
63370;SDS011;49504;48.336;14.472;2022-09-17T02:53:33;3.90;;;2.20;;
63370;SDS011;49504;48.336;14.472;2022-09-17T03:00:26;3.50;;;1.77;;
63370;SDS011;49504;48.336;14.472;2022-09-17T03:09:46;3.83;;;1.83;;
63370;SDS011;49504;48.336;14.472;2022-09-17T03:14:47;4.35;;;2.03;;
63370;SDS011;49504;48.336;14.472;2022-09-17T03:22:48;3.83;;;2.20;;
63370;SDS011;49504;48.336;14.472;2022-09-17T03:27:51;3.92;;;1.73;;
63370;SDS011;49504;48.336;14.472;2022-09-17T03:32:51;7.38;;;1.85;;
63370;SDS011;49504;48.336;14.472;2022-09-17T03:37:54;3.83;;;2.10;;
63370;SDS011;49504;48.336;14.472;2022-09-17T03:42:55;4.05;;;2.00;;
63370;SDS011;49504;48.336;14.472;2022-09-17T03:50:18;5.18;;;2.03;;
63370;SDS011;49504;48.336;14.472;2022-09-17T03:55:19;3.88;;;1.85;;
63370;SDS011;49504;48.336;14.472;2022-09-17T04:00:20;3.78;;;1.75;;
63370;SDS011;49504;48.336;14.472;2022-09-17T04:12:47;4.07;;;1.90;;
63370;SDS011;49504;48.336;14.472;2022-09-17T04:20:24;4.03;;;2.10;;
63370;SDS011;49504;48.336;14.472;2022-09-17T04:25:25;3.35;;;1.80;;
63370;SDS011;49504;48.336;14.472;2022-09-17T04:30:26;3.10;;;1.60;;
63370;SDS011;49504;48.336;14.472;2022-09-17T04:38:13;3.70;;;1.75;;
63370;SDS011;49504;48.336;14.472;2022-09-17T04:43:14;3.55;;;1.60;;
63370;SDS011;49504;48.336;14.472;2022-09-17T04:48:15;3.28;;;1.67;;
63370;SDS011;49504;48.336;14.472;2022-09-17T04:53:18;3.28;;;1.30;;
63370;SDS011;49504;48.336;14.472;2022-09-17T04:58:19;3.00;;;1.50;;
63370;SDS011;49504;48.336;14.472;2022-09-17T05:03:20;3.33;;;1.42;;
63370;SDS011;49504;48.336;14.472;2022-09-17T05:08:22;3.10;;;1.60;;
63370;SDS011;49504;48.336;14.472;2022-09-17T05:13:26;3.17;;;1.48;;
63370;SDS011;49504;48.336;14.472;2022-09-17T05:18:27;3.92;;;1.77;;
63370;SDS011;49504;48.336;14.472;2022-09-17T05:23:29;4.20;;;1.95;;
63370;SDS011;49504;48.336;14.472;2022-09-17T05:28:30;4.18;;;2.15;;
63370;SDS011;49504;48.336;14.472;2022-09-17T05:33:31;3.60;;;1.88;;
63370;SDS011;49504;48.336;14.472;2022-09-17T05:38:33;3.65;;;1.88;;
63370;SDS011;49504;48.336;14.472;2022-09-17T05:43:34;4.07;;;2.00;;
63370;SDS011;49504;48.336;14.472;2022-09-17T05:48:35;7.20;;;3.05;;
63370;SDS011;49504;48.336;14.472;2022-09-17T05:53:38;12.00;;;4.53;;
63370;SDS011;49504;48.336;14.472;2022-09-17T05:58:39;14.23;;;4.85;;
63370;SDS011;49504;48.336;14.472;2022-09-17T06:03:40;13.02;;;4.75;;
63370;SDS011;49504;48.336;14.472;2022-09-17T06:08:43;15.55;;;4.28;;
63370;SDS011;49504;48.336;14.472;2022-09-17T06:13:44;10.13;;;3.45;;
63370;SDS011;49504;48.336;14.472;2022-09-17T06:18:45;10.88;;;3.72;;
63370;SDS011;49504;48.336;14.472;2022-09-17T06:23:48;6.78;;;2.53;;
63370;SDS011;49504;48.336;14.472;2022-09-17T06:28:49;7.32;;;3.20;;
63370;SDS011;49504;48.336;14.472;2022-09-17T06:35:28;8.68;;;2.90;;
63370;SDS011;49504;48.336;14.472;2022-09-17T06:40:29;10.13;;;3.75;;
63370;SDS011;49504;48.336;14.472;2022-09-17T06:45:30;6.63;;;2.75;;
63370;SDS011;49504;48.336;14.472;2022-09-17T06:50:33;6.57;;;2.92;;
63370;SDS011;49504;48.336;14.472;2022-09-17T06:55:34;7.20;;;2.47;;
63370;SDS011;49504;48.336;14.472;2022-09-17T07:00:35;7.45;;;3.03;;
63370;SDS011;49504;48.336;14.472;2022-09-17T07:05:38;6.35;;;2.33;;
63370;SDS011;49504;48.336;14.472;2022-09-17T07:11:34;5.40;;;3.00;;
63370;SDS011;49504;48.336;14.472;2022-09-17T07:16:34;7.47;;;3.10;;
63370;SDS011;49504;48.336;14.472;2022-09-17T07:21:36;5.05;;;2.75;;
63370;SDS011;49504;48.336;14.472;2022-09-17T07:26:39;6.47;;;2.72;;
63370;SDS011;49504;48.336;14.472;2022-09-17T07:31:40;6.43;;;2.10;;
63370;SDS011;49504;48.336;14.472;2022-09-17T07:36:41;4.45;;;2.08;;
63370;SDS011;49504;48.336;14.472;2022-09-17T07:41:44;5.80;;;2.25;;
63370;SDS011;49504;48.336;14.472;2022-09-17T07:46:45;5.22;;;2.50;;
63370;SDS011;49504;48.336;14.472;2022-09-17T07:51:46;3.85;;;2.00;;
63370;SDS011;49504;48.336;14.472;2022-09-17T07:56:49;5.28;;;2.20;;
63370;SDS011;49504;48.336;14.472;2022-09-17T08:01:50;5.13;;;2.28;;
63370;SDS011;49504;48.336;14.472;2022-09-17T08:06:52;5.45;;;2.05;;
63370;SDS011;49504;48.336;14.472;2022-09-17T08:11:58;6.10;;;2.67;;
63370;SDS011;49504;48.336;14.472;2022-09-17T08:16:59;4.45;;;2.30;;
63370;SDS011;49504;48.336;14.472;2022-09-17T08:22:00;4.38;;;2.22;;
63370;SDS011;49504;48.336;14.472;2022-09-17T08:27:03;5.32;;;2.22;;
63370;SDS011;49504;48.336;14.472;2022-09-17T08:32:04;5.07;;;1.85;;
63370;SDS011;49504;48.336;14.472;2022-09-17T08:38:31;5.22;;;2.05;;
63370;SDS011;49504;48.336;14.472;2022-09-17T08:49:00;4.13;;;1.95;;
63370;SDS011;49504;48.336;14.472;2022-09-17T08:54:07;5.60;;;2.25;;
63370;SDS011;49504;48.336;14.472;2022-09-17T08:59:20;5.40;;;2.05;;
63370;SDS011;49504;48.336;14.472;2022-09-17T09:04:40;7.22;;;2.40;;
63370;SDS011;49504;48.336;14.472;2022-09-17T09:10:04;4.38;;;2.00;;
63370;SDS011;49504;48.336;14.472;2022-09-17T09:15:25;5.65;;;2.08;;
63370;SDS011;49504;48.336;14.472;2022-09-17T09:20:38;6.93;;;2.15;;
63370;SDS011;49504;48.336;14.472;2022-09-17T09:26:00;4.63;;;1.80;;
63370;SDS011;49504;48.336;14.472;2022-09-17T09:36:48;6.30;;;2.40;;
63370;SDS011;49504;48.336;14.472;2022-09-17T09:41:50;5.88;;;2.20;;
63370;SDS011;49504;48.336;14.472;2022-09-17T09:46:59;5.75;;;2.83;;
63370;SDS011;49504;48.336;14.472;2022-09-17T09:52:22;5.63;;;2.17;;
63370;SDS011;49504;48.336;14.472;2022-09-17T09:57:40;5.80;;;2.53;;
63370;SDS011;49504;48.336;14.472;2022-09-17T10:02:45;4.90;;;2.30;;
63370;SDS011;49504;48.336;14.472;2022-09-17T10:07:48;4.47;;;2.20;;
63370;SDS011;49504;48.336;14.472;2022-09-17T10:13:03;5.97;;;2.35;;
63370;SDS011;49504;48.336;14.472;2022-09-17T10:18:09;5.65;;;2.42;;
63370;SDS011;49504;48.336;14.472;2022-09-17T10:23:17;5.60;;;2.53;;
63370;SDS011;49504;48.336;14.472;2022-09-17T10:33:52;8.00;;;2.15;;
63370;SDS011;49504;48.336;14.472;2022-09-17T10:38:58;5.90;;;2.17;;
63370;SDS011;49504;48.336;14.472;2022-09-17T10:44:25;3.93;;;1.93;;
63370;SDS011;49504;48.336;14.472;2022-09-17T10:49:32;5.47;;;2.17;;
63370;SDS011;49504;48.336;14.472;2022-09-17T10:54:50;5.47;;;2.13;;
63370;SDS011;49504;48.336;14.472;2022-09-17T11:00:17;4.50;;;2.05;;
63370;SDS011;49504;48.336;14.472;2022-09-17T11:05:28;3.53;;;1.70;;
63370;SDS011;49504;48.336;14.472;2022-09-17T11:10:44;4.68;;;1.95;;
63370;SDS011;49504;48.336;14.472;2022-09-17T11:16:00;4.45;;;2.17;;
63370;SDS011;49504;48.336;14.472;2022-09-17T11:26:45;3.95;;;1.80;;
63370;SDS011;49504;48.336;14.472;2022-09-17T11:31:54;4.70;;;2.00;;
63370;SDS011;49504;48.336;14.472;2022-09-17T11:37:03;4.18;;;2.20;;
63370;SDS011;49504;48.336;14.472;2022-09-17T11:42:11;4.03;;;1.88;;
63370;SDS011;49504;48.336;14.472;2022-09-17T11:47:19;3.75;;;2.00;;
63370;SDS011;49504;48.336;14.472;2022-09-17T11:52:25;3.58;;;1.90;;
63370;SDS011;49504;48.336;14.472;2022-09-17T11:57:35;3.75;;;1.67;;
63370;SDS011;49504;48.336;14.472;2022-09-17T12:07:48;5.70;;;2.05;;
63370;SDS011;49504;48.336;14.472;2022-09-17T12:12:56;5.27;;;2.07;;
63370;SDS011;49504;48.336;14.472;2022-09-17T12:18:06;4.75;;;1.50;;
63370;SDS011;49504;48.336;14.472;2022-09-17T12:23:24;3.83;;;1.42;;
63370;SDS011;49504;48.336;14.472;2022-09-17T12:28:37;3.50;;;1.70;;
63370;SDS011;49504;48.336;14.472;2022-09-17T12:33:49;3.22;;;1.50;;
63370;SDS011;49504;48.336;14.472;2022-09-17T12:39:04;3.75;;;1.50;;
63370;SDS011;49504;48.336;14.472;2022-09-17T12:44:52;4.55;;;1.45;;
63370;SDS011;49504;48.336;14.472;2022-09-17T12:50:23;3.92;;;1.42;;
63370;SDS011;49504;48.336;14.472;2022-09-17T12:55:47;4.10;;;1.60;;
63370;SDS011;49504;48.336;14.472;2022-09-17T13:01:18;3.58;;;1.40;;
63370;SDS011;49504;48.336;14.472;2022-09-17T13:15:37;7.82;;;1.67;;
63370;SDS011;49504;48.336;14.472;2022-09-17T13:20:54;3.90;;;1.20;;
63370;SDS011;49504;48.336;14.472;2022-09-17T13:26:00;3.25;;;1.50;;
63370;SDS011;49504;48.336;14.472;2022-09-17T13:31:03;5.25;;;1.75;;
63370;SDS011;49504;48.336;14.472;2022-09-17T13:36:04;4.30;;;1.50;;
63370;SDS011;49504;48.336;14.472;2022-09-17T13:41:43;3.25;;;1.45;;
63370;SDS011;49504;48.336;14.472;2022-09-17T13:49:13;3.35;;;1.50;;
63370;SDS011;49504;48.336;14.472;2022-09-17T13:59:34;3.85;;;1.40;;
63370;SDS011;49504;48.336;14.472;2022-09-17T14:04:46;4.22;;;1.42;;
63370;SDS011;49504;48.336;14.472;2022-09-17T14:09:50;4.25;;;1.55;;
63370;SDS011;49504;48.336;14.472;2022-09-17T14:25:00;7.95;;;1.25;;
63370;SDS011;49504;48.336;14.472;2022-09-17T14:30:06;4.22;;;1.10;;
63370;SDS011;49504;48.336;14.472;2022-09-17T14:35:25;2.97;;;1.38;;
63370;SDS011;49504;48.336;14.472;2022-09-17T14:40:32;4.25;;;1.27;;
63370;SDS011;49504;48.336;14.472;2022-09-17T14:45:35;5.53;;;1.50;;
63370;SDS011;49504;48.336;14.472;2022-09-17T14:50:42;4.63;;;1.63;;
63370;SDS011;49504;48.336;14.472;2022-09-17T14:55:43;7.10;;;2.72;;
63370;SDS011;49504;48.336;14.472;2022-09-17T15:00:49;6.75;;;2.60;;
63370;SDS011;49504;48.336;14.472;2022-09-17T15:05:53;10.43;;;3.50;;
63370;SDS011;49504;48.336;14.472;2022-09-17T15:12:41;8.15;;;3.17;;
63370;SDS011;49504;48.336;14.472;2022-09-17T15:17:43;8.48;;;3.03;;
63370;SDS011;49504;48.336;14.472;2022-09-17T15:22:47;6.68;;;2.60;;
63370;SDS011;49504;48.336;14.472;2022-09-17T15:27:56;7.88;;;2.70;;
63370;SDS011;49504;48.336;14.472;2022-09-17T15:33:04;5.38;;;2.05;;
63370;SDS011;49504;48.336;14.472;2022-09-17T15:38:18;6.22;;;2.53;;
63370;SDS011;49504;48.336;14.472;2022-09-17T15:43:25;8.50;;;2.88;;
63370;SDS011;49504;48.336;14.472;2022-09-17T15:48:33;5.88;;;2.10;;
63370;SDS011;49504;48.336;14.472;2022-09-17T15:53:36;7.22;;;2.90;;
63370;SDS011;49504;48.336;14.472;2022-09-17T15:58:49;5.95;;;2.15;;
63370;SDS011;49504;48.336;14.472;2022-09-17T16:09:34;6.88;;;2.35;;
63370;SDS011;49504;48.336;14.472;2022-09-17T16:14:44;6.70;;;2.63;;
63370;SDS011;49504;48.336;14.472;2022-09-17T16:19:48;6.50;;;1.77;;
63370;SDS011;49504;48.336;14.472;2022-09-17T16:24:49;6.72;;;2.20;;
63370;SDS011;49504;48.336;14.472;2022-09-17T16:29:55;5.78;;;2.08;;
63370;SDS011;49504;48.336;14.472;2022-09-17T16:35:10;3.92;;;1.67;;
63370;SDS011;49504;48.336;14.472;2022-09-17T16:40:20;5.20;;;2.05;;
63370;SDS011;49504;48.336;14.472;2022-09-17T16:45:25;6.18;;;1.90;;
63370;SDS011;49504;48.336;14.472;2022-09-17T16:50:29;5.40;;;2.53;;
63370;SDS011;49504;48.336;14.472;2022-09-17T16:55:31;5.57;;;2.10;;
63370;SDS011;49504;48.336;14.472;2022-09-17T17:00:34;6.50;;;2.50;;
63370;SDS011;49504;48.336;14.472;2022-09-17T17:05:36;5.10;;;1.80;;
63370;SDS011;49504;48.336;14.472;2022-09-17T17:10:38;6.25;;;1.40;;
63370;SDS011;49504;48.336;14.472;2022-09-17T17:16:47;3.90;;;1.40;;
63370;SDS011;49504;48.336;14.472;2022-09-17T17:21:48;6.15;;;2.20;;
63370;SDS011;49504;48.336;14.472;2022-09-17T17:26:50;7.93;;;1.80;;
63370;SDS011;49504;48.336;14.472;2022-09-17T17:31:53;3.90;;;1.73;;
63370;SDS011;49504;48.336;14.472;2022-09-17T17:36:54;4.22;;;2.00;;
63370;SDS011;49504;48.336;14.472;2022-09-17T17:41:56;5.40;;;1.60;;
63370;SDS011;49504;48.336;14.472;2022-09-17T17:46:59;4.18;;;1.15;;
63370;SDS011;49504;48.336;14.472;2022-09-17T17:52:00;4.10;;;1.58;;
63370;SDS011;49504;48.336;14.472;2022-09-17T17:57:02;5.35;;;1.60;;
63370;SDS011;49504;48.336;14.472;2022-09-17T18:02:05;4.45;;;1.55;;
63370;SDS011;49504;48.336;14.472;2022-09-17T18:07:08;3.45;;;1.52;;
63370;SDS011;49504;48.336;14.472;2022-09-17T18:12:10;5.90;;;1.60;;
63370;SDS011;49504;48.336;14.472;2022-09-17T18:17:12;4.75;;;1.77;;
63370;SDS011;49504;48.336;14.472;2022-09-17T18:22:14;4.28;;;1.60;;
63370;SDS011;49504;48.336;14.472;2022-09-17T18:27:15;3.85;;;1.33;;
63370;SDS011;49504;48.336;14.472;2022-09-17T18:32:18;4.00;;;1.58;;
63370;SDS011;49504;48.336;14.472;2022-09-17T18:37:20;3.97;;;1.38;;
63370;SDS011;49504;48.336;14.472;2022-09-17T18:42:22;4.28;;;1.20;;
63370;SDS011;49504;48.336;14.472;2022-09-17T18:47:25;3.78;;;1.08;;
63370;SDS011;49504;48.336;14.472;2022-09-17T18:52:26;3.80;;;1.13;;
63370;SDS011;49504;48.336;14.472;2022-09-17T18:57:28;4.25;;;1.13;;
63370;SDS011;49504;48.336;14.472;2022-09-17T19:02:31;3.97;;;1.60;;
63370;SDS011;49504;48.336;14.472;2022-09-17T19:07:32;2.85;;;1.25;;
63370;SDS011;49504;48.336;14.472;2022-09-17T19:12:33;3.47;;;1.50;;
63370;SDS011;49504;48.336;14.472;2022-09-17T19:17:36;4.25;;;1.15;;
63370;SDS011;49504;48.336;14.472;2022-09-17T19:22:38;3.15;;;1.25;;
63370;SDS011;49504;48.336;14.472;2022-09-17T19:27:39;3.47;;;1.23;;
63370;SDS011;49504;48.336;14.472;2022-09-17T19:32:45;3.58;;;1.00;;
63370;SDS011;49504;48.336;14.472;2022-09-17T19:37:47;5.18;;;1.58;;
63370;SDS011;49504;48.336;14.472;2022-09-17T19:42:50;3.30;;;1.30;;
63370;SDS011;49504;48.336;14.472;2022-09-17T19:47:53;4.10;;;1.33;;
63370;SDS011;49504;48.336;14.472;2022-09-17T19:52:54;3.83;;;1.08;;
63370;SDS011;49504;48.336;14.472;2022-09-17T19:57:55;3.60;;;1.10;;
63370;SDS011;49504;48.336;14.472;2022-09-17T20:02:57;3.08;;;1.10;;
63370;SDS011;49504;48.336;14.472;2022-09-17T20:07:58;3.08;;;0.98;;
63370;SDS011;49504;48.336;14.472;2022-09-17T20:12:59;2.72;;;1.10;;
63370;SDS011;49504;48.336;14.472;2022-09-17T20:18:01;3.42;;;1.08;;
63370;SDS011;49504;48.336;14.472;2022-09-17T20:23:02;3.88;;;1.30;;
63370;SDS011;49504;48.336;14.472;2022-09-17T20:28:03;4.07;;;1.50;;
63370;SDS011;49504;48.336;14.472;2022-09-17T20:33:05;3.10;;;1.15;;
63370;SDS011;49504;48.336;14.472;2022-09-17T20:38:06;4.30;;;1.35;;
63370;SDS011;49504;48.336;14.472;2022-09-17T20:43:07;3.83;;;1.10;;
63370;SDS011;49504;48.336;14.472;2022-09-17T20:48:10;3.38;;;0.90;;
63370;SDS011;49504;48.336;14.472;2022-09-17T20:53:10;4.47;;;0.90;;
63370;SDS011;49504;48.336;14.472;2022-09-17T20:58:11;3.65;;;1.20;;
63370;SDS011;49504;48.336;14.472;2022-09-17T21:03:14;2.35;;;0.77;;
63370;SDS011;49504;48.336;14.472;2022-09-17T21:08:15;3.20;;;1.00;;
63370;SDS011;49504;48.336;14.472;2022-09-17T21:13:15;3.35;;;1.17;;
63370;SDS011;49504;48.336;14.472;2022-09-17T21:18:18;2.80;;;0.90;;
63370;SDS011;49504;48.336;14.472;2022-09-17T21:23:21;3.00;;;1.05;;
63370;SDS011;49504;48.336;14.472;2022-09-17T21:28:23;4.30;;;1.20;;
63370;SDS011;49504;48.336;14.472;2022-09-17T21:33:25;2.90;;;0.90;;
63370;SDS011;49504;48.336;14.472;2022-09-17T21:38:26;2.72;;;0.88;;
63370;SDS011;49504;48.336;14.472;2022-09-17T21:43:27;2.03;;;0.47;;
63370;SDS011;49504;48.336;14.472;2022-09-17T21:48:30;2.40;;;0.80;;
63370;SDS011;49504;48.336;14.472;2022-09-17T21:53:33;3.25;;;1.00;;
63370;SDS011;49504;48.336;14.472;2022-09-17T21:58:35;3.58;;;0.98;;
63370;SDS011;49504;48.336;14.472;2022-09-17T22:03:37;2.95;;;1.00;;
63370;SDS011;49504;48.336;14.472;2022-09-17T22:08:39;2.70;;;0.90;;
63370;SDS011;49504;48.336;14.472;2022-09-17T22:13:41;2.47;;;1.05;;
63370;SDS011;49504;48.336;14.472;2022-09-17T22:18:51;3.17;;;0.82;;
63370;SDS011;49504;48.336;14.472;2022-09-17T22:23:52;2.83;;;0.85;;
63370;SDS011;49504;48.336;14.472;2022-09-17T22:28:59;2.08;;;0.63;;
63370;SDS011;49504;48.336;14.472;2022-09-17T22:34:05;3.00;;;0.98;;
63370;SDS011;49504;48.336;14.472;2022-09-17T22:39:07;2.55;;;0.60;;
63370;SDS011;49504;48.336;14.472;2022-09-17T22:44:10;2.47;;;0.73;;
63370;SDS011;49504;48.336;14.472;2022-09-17T22:49:13;2.75;;;0.70;;
63370;SDS011;49504;48.336;14.472;2022-09-17T22:54:16;1.88;;;0.70;;
63370;SDS011;49504;48.336;14.472;2022-09-17T22:59:17;2.40;;;0.68;;
63370;SDS011;49504;48.336;14.472;2022-09-17T23:04:20;2.17;;;0.70;;
63370;SDS011;49504;48.336;14.472;2022-09-17T23:09:20;3.47;;;0.80;;
63370;SDS011;49504;48.336;14.472;2022-09-17T23:14:21;2.55;;;0.95;;
63370;SDS011;49504;48.336;14.472;2022-09-17T23:19:24;2.20;;;0.70;;
63370;SDS011;49504;48.336;14.472;2022-09-17T23:24:25;1.85;;;0.60;;
63370;SDS011;49504;48.336;14.472;2022-09-17T23:29:25;1.90;;;0.65;;
63370;SDS011;49504;48.336;14.472;2022-09-17T23:35:39;2.17;;;0.80;;
63370;SDS011;49504;48.336;14.472;2022-09-17T23:40:40;4.20;;;0.60;;
63370;SDS011;49504;48.336;14.472;2022-09-17T23:45:41;2.28;;;0.80;;
63370;SDS011;49504;48.336;14.472;2022-09-17T23:50:43;1.80;;;0.50;;
63370;SDS011;49504;48.336;14.472;2022-09-17T23:55:44;2.13;;;0.60;;
